Time;durP1;ratioP1;P1;durP2;ratioP2;P2;SDS_P1;SDS_P2;PMS_P1;PMS_P2;Temp;Humidity;BMP_temperature;BMP_pressure;BME280_temperature;BME280_humidity;BME280_pressure;Samples;Min_cycle;Max_cycle;Signal;HPM_P1;HPM_P2
2023/06/29 00:01:56;;;;;;;8.35;3.30;;;;;;;14.35;85.07;97360.13;5044746;28;20072;-55
2023/06/29 00:04:25;;;;;;;8.85;3.13;;;;;;;14.34;85.27;97355.75;5049155;28;20212;-53
2023/06/29 00:06:55;;;;;;;13.10;4.57;;;;;;;14.35;85.06;97359.28;5043245;28;20124;-50
2023/06/29 00:09:22;;;;;;;8.02;3.47;;;;;;;14.33;85.27;97366.94;5040638;28;20047;-55
2023/06/29 00:11:49;;;;;;;6.85;3.83;;;;;;;14.29;85.09;97355.75;5046121;28;20047;-54
2023/06/29 00:14:16;;;;;;;6.25;4.30;;;;;;;14.22;85.51;97360.72;5048309;28;20071;-56
2023/06/29 00:16:43;;;;;;;4.90;3.28;;;;;;;14.16;86.02;97355.25;5040180;28;20048;-56
2023/06/29 00:19:11;;;;;;;4.95;3.47;;;;;;;14.16;85.68;97357.97;5045450;28;20220;-55
2023/06/29 00:21:38;;;;;;;6.50;3.67;;;;;;;14.14;86.26;97357.44;5044873;28;20055;-56
2023/06/29 00:24:05;;;;;;;5.55;3.22;;;;;;;14.13;85.96;97349.53;5045275;28;20158;-56
2023/06/29 00:26:32;;;;;;;5.85;3.15;;;;;;;14.06;86.31;97349.84;5046119;28;20120;-54
2023/06/29 00:28:58;;;;;;;6.53;3.60;;;;;;;14.02;86.75;97351.47;5050281;28;21606;-55
2023/06/29 00:31:26;;;;;;;5.95;3.65;;;;;;;13.95;87.42;97350.94;5040978;28;20051;-55
2023/06/29 00:33:53;;;;;;;5.53;3.78;;;;;;;14.04;87.28;97341.13;5042784;28;20401;-55
2023/06/29 00:36:19;;;;;;;6.53;3.67;;;;;;;14.07;86.71;97343.28;5029875;28;20049;-52
2023/06/29 00:38:46;;;;;;;8.10;4.53;;;;;;;14.11;86.31;97340.84;5050210;28;20127;-54
2023/06/29 00:41:15;;;;;;;6.78;3.95;;;;;;;14.08;86.76;97336.75;5035122;28;20037;-57
2023/06/29 00:43:45;;;;;;;8.80;4.00;;;;;;;13.97;87.33;97333.22;5041255;28;20048;-57
2023/06/29 00:46:16;;;;;;;6.72;4.03;;;;;;;14.01;87.21;97328.06;5047261;28;20522;-54
2023/06/29 00:48:43;;;;;;;5.90;4.05;;;;;;;13.95;87.71;97327.25;5044368;28;20040;-56
2023/06/29 00:51:11;;;;;;;8.00;3.92;;;;;;;14.03;87.21;97325.88;5042819;28;20052;-53
2023/06/29 00:53:37;;;;;;;8.52;3.65;;;;;;;13.97;87.27;97327.00;5052466;28;20470;-53
2023/06/29 00:56:04;;;;;;;6.65;3.80;;;;;;;13.96;87.56;97330.81;5041590;28;20312;-55
2023/06/29 00:58:31;;;;;;;5.97;3.55;;;;;;;14.09;86.59;97323.97;5046800;28;20139;-54
2023/06/29 01:00:57;;;;;;;6.63;4.28;;;;;;;14.04;87.17;97322.88;5046915;28;20076;-55
2023/06/29 01:03:25;;;;;;;7.35;4.20;;;;;;;14.11;86.70;97319.06;5033810;28;20038;-52
2023/06/29 01:05:56;;;;;;;5.70;4.07;;;;;;;14.06;86.71;97314.44;5048468;28;20507;-54
2023/06/29 01:08:33;;;;;;;6.93;4.03;;;;;;;14.03;87.07;97323.16;5036723;28;20140;-55
2023/06/29 01:11:03;;;;;;;6.47;3.65;;;;;;;13.98;87.50;97317.72;5043617;28;20298;-54
2023/06/29 01:13:31;;;;;;;5.43;3.75;;;;;;;13.98;87.28;97317.72;5047729;28;20038;-55
2023/06/29 01:15:59;;;;;;;5.45;3.95;;;;;;;13.90;87.68;97313.66;5042117;28;20131;-55
2023/06/29 01:18:30;;;;;;;5.63;4.07;;;;;;;13.89;87.66;97310.13;5041963;28;20044;-55
2023/06/29 01:20:59;;;;;;;5.87;3.90;;;;;;;13.69;89.10;97316.41;5041975;28;20040;-55
2023/06/29 01:23:29;;;;;;;8.13;3.90;;;;;;;13.62;89.74;97305.81;5037368;28;20295;-55
2023/06/29 01:25:57;;;;;;;5.35;4.05;;;;;;;13.59;90.10;97317.22;5047578;28;20127;-53
2023/06/29 01:28:25;;;;;;;6.75;4.55;;;;;;;13.64;90.09;97311.78;5045618;28;20131;-55
2023/06/29 01:30:52;;;;;;;6.50;4.13;;;;;;;13.69;89.80;97310.97;5041594;28;20491;-52
2023/06/29 01:33:23;;;;;;;8.32;4.30;;;;;;;13.74;89.39;97308.25;5044016;28;20532;-55
2023/06/29 01:36:00;;;;;;;8.73;4.40;;;;;;;13.75;89.07;97306.34;5040478;28;20115;-53
2023/06/29 01:38:36;;;;;;;6.50;4.60;;;;;;;13.68;89.51;97311.25;5042441;28;20045;-54
2023/06/29 01:41:06;;;;;;;7.43;4.43;;;;;;;13.65;89.70;97301.72;5037294;28;20044;-55
2023/06/29 01:43:34;;;;;;;8.50;3.88;;;;;;;13.68;89.53;97300.38;5039788;28;20502;-54
2023/06/29 01:46:02;;;;;;;5.95;4.50;;;;;;;13.70;88.39;97296.28;5024876;28;20487;-54
2023/06/29 01:48:30;;;;;;;5.45;4.30;;;;;;;13.56;90.18;97296.00;5040256;28;20500;-54
2023/06/29 01:50:57;;;;;;;7.13;4.35;;;;;;;13.56;90.00;97296.00;5041413;28;20091;-55
2023/06/29 01:53:23;;;;;;;6.85;4.25;;;;;;;13.57;90.00;97294.13;5037846;28;20049;-57
2023/06/29 01:55:50;;;;;;;6.57;4.15;;;;;;;13.55;90.58;97288.94;5045747;28;20037;-54
2023/06/29 01:58:16;;;;;;;6.10;4.30;;;;;;;13.59;90.33;97287.31;5045658;28;20431;-54
2023/06/29 02:00:43;;;;;;;5.90;4.00;;;;;;;13.61;90.01;97287.88;5051676;28;20228;-50
2023/06/29 02:03:09;;;;;;;6.32;4.30;;;;;;;13.76;89.25;97288.94;5046128;28;20041;-56
2023/06/29 02:05:36;;;;;;;5.57;4.10;;;;;;;13.70;89.24;97287.28;5043054;28;20041;-51
2023/06/29 02:08:03;;;;;;;6.85;4.30;;;;;;;13.55;89.91;97279.97;5045974;28;20047;-54
2023/06/29 02:10:29;;;;;;;7.78;5.10;;;;;;;13.46;90.96;97276.97;5046089;28;20397;-55
2023/06/29 02:12:56;;;;;;;6.60;4.13;;;;;;;13.38;91.34;97279.13;5033016;28;20041;-55
2023/06/29 02:15:22;;;;;;;6.60;4.40;;;;;;;13.35;91.64;97276.94;5039824;28;20049;-55
2023/06/29 02:17:49;;;;;;;6.22;4.32;;;;;;;13.28;92.06;97276.44;5048737;28;20132;-56
2023/06/29 02:20:17;;;;;;;6.32;4.50;;;;;;;13.22;92.89;97277.50;5045443;28;20041;-56
2023/06/29 02:22:43;;;;;;;8.75;4.78;;;;;;;13.14;93.13;97278.88;5043486;28;20045;-57
2023/06/29 02:25:13;;;;;;;6.45;4.53;;;;;;;13.14;93.23;97276.97;5046024;28;20124;-55
2023/06/29 02:27:39;;;;;;;9.32;4.30;;;;;;;13.24;92.58;97272.63;5043193;28;20498;-56
2023/06/29 02:30:06;;;;;;;6.53;4.32;;;;;;;13.30;91.91;97276.97;5048376;28;20574;-54
2023/06/29 02:32:34;;;;;;;5.70;4.70;;;;;;;13.17;92.74;97282.94;5050715;28;20044;-56
2023/06/29 02:35:00;;;;;;;6.60;4.78;;;;;;;13.16;92.76;97276.69;5046815;28;20792;-54
2023/06/29 02:37:27;;;;;;;7.80;4.50;;;;;;;13.22;92.23;97264.72;5043322;28;20558;-52
2023/06/29 02:39:54;;;;;;;7.88;5.20;;;;;;;13.17;92.76;97266.63;5041566;28;20128;-56
2023/06/29 02:42:22;;;;;;;8.57;4.57;;;;;;;13.15;92.41;97272.34;5045319;28;20113;-53
2023/06/29 02:44:48;;;;;;;7.15;4.90;;;;;;;13.09;93.55;97273.44;5047061;28;20036;-56
2023/06/29 02:47:15;;;;;;;8.32;4.60;;;;;;;13.08;93.68;97269.09;5051733;28;20454;-52
2023/06/29 02:49:41;;;;;;;8.10;4.55;;;;;;;13.08;93.44;97264.44;5045964;28;20052;-56
2023/06/29 02:52:10;;;;;;;6.93;4.70;;;;;;;13.09;93.30;97271.50;5041529;28;20123;-55
2023/06/29 02:54:37;;;;;;;7.32;4.40;;;;;;;12.97;94.33;97268.25;5039990;28;20041;-52
2023/06/29 02:57:04;;;;;;;9.25;4.82;;;;;;;12.95;94.61;97270.41;5048584;28;21050;-51
2023/06/29 02:59:30;;;;;;;8.38;5.10;;;;;;;12.91;95.25;97262.00;5048714;28;20452;-53
2023/06/29 03:01:57;;;;;;;5.95;4.05;;;;;;;12.91;95.16;97264.72;5045580;28;20048;-51
2023/06/29 03:04:23;;;;;;;9.82;4.38;;;;;;;13.00;94.25;97273.13;5043261;28;20069;-54
2023/06/29 03:06:52;;;;;;;6.75;4.57;;;;;;;12.95;94.62;97259.56;5048423;28;20065;-54
2023/06/29 03:09:19;;;;;;;7.22;4.90;;;;;;;12.98;94.84;97259.81;5037211;28;20057;-54
2023/06/29 03:11:46;;;;;;;7.22;4.65;;;;;;;12.88;94.86;97257.94;5059506;28;20415;-55
2023/06/29 03:14:12;;;;;;;6.50;5.38;;;;;;;12.94;94.58;97263.34;5046719;28;20040;-52
2023/06/29 03:16:39;;;;;;;7.53;5.18;;;;;;;13.03;94.13;97258.19;5040482;28;20033;-53
2023/06/29 03:19:05;;;;;;;7.50;5.25;;;;;;;13.10;93.18;97256.84;5042707;28;20037;-52
2023/06/29 03:21:32;;;;;;;6.30;4.53;;;;;;;13.14;93.18;97262.56;5037149;28;20049;-55
2023/06/29 03:23:58;;;;;;;10.02;5.45;;;;;;;13.03;93.88;97267.16;5045469;28;20037;-56
2023/06/29 03:26:25;;;;;;;5.70;4.57;;;;;;;13.00;93.69;97263.09;5048254;28;20787;-54
2023/06/29 03:28:51;;;;;;;8.23;5.15;;;;;;;13.07;93.88;97273.69;5040468;28;20412;-53
2023/06/29 03:31:18;;;;;;;8.55;4.50;;;;;;;13.10;93.71;97259.56;5050548;28;20053;-54
2023/06/29 03:33:45;;;;;;;8.77;5.00;;;;;;;13.12;93.45;97268.25;5047870;28;20132;-56
2023/06/29 03:36:12;;;;;;;6.15;4.32;;;;;;;13.13;93.34;97264.44;5043795;28;20041;-55
2023/06/29 03:38:39;;;;;;;6.57;5.15;;;;;;;13.20;92.73;97264.16;5034464;28;20045;-56
2023/06/29 03:41:05;;;;;;;7.72;4.78;;;;;;;13.26;92.65;97262.28;5038173;28;20138;-55
2023/06/29 03:43:32;;;;;;;7.00;4.70;;;;;;;13.28;92.31;97254.69;5043286;28;20124;-53
2023/06/29 03:45:59;;;;;;;7.75;4.75;;;;;;;13.30;92.12;97252.47;5046211;28;20255;-56
2023/06/29 03:48:28;;;;;;;6.63;4.60;;;;;;;13.31;91.85;97251.41;5040884;28;20048;-53
2023/06/29 03:50:56;;;;;;;11.18;5.25;;;;;;;13.32;91.83;97250.31;5043024;28;20044;-54
2023/06/29 03:53:23;;;;;;;6.65;4.90;;;;;;;13.44;91.10;97249.22;5045100;28;20049;-52
2023/06/29 03:55:50;;;;;;;7.80;4.93;;;;;;;13.33;91.87;97251.94;5041087;28;20039;-51
2023/06/29 03:58:17;;;;;;;7.93;5.50;;;;;;;13.34;92.00;97250.06;5046752;28;20041;-53
2023/06/29 04:00:44;;;;;;;5.70;4.88;;;;;;;13.44;91.77;97243.75;5043006;28;20041;-53
2023/06/29 04:03:11;;;;;;;7.20;5.20;;;;;;;13.40;91.91;97238.91;5048500;28;20484;-54
2023/06/29 04:05:37;;;;;;;6.95;5.15;;;;;;;13.45;91.41;97235.34;5050361;28;20068;-52
2023/06/29 04:08:05;;;;;;;9.90;5.15;;;;;;;13.48;91.46;97232.09;5047985;28;20033;-54
2023/06/29 04:10:32;;;;;;;6.90;4.85;;;;;;;13.52;91.34;97235.91;5040338;28;20080;-56
2023/06/29 04:12:59;;;;;;;10.32;5.43;;;;;;;13.47;91.78;97229.63;5044135;28;20407;-54
2023/06/29 04:15:26;;;;;;;7.18;4.65;;;;;;;13.52;91.36;97237.81;5042181;28;20033;-52
2023/06/29 04:17:53;;;;;;;6.03;4.57;;;;;;;13.53;91.44;97240.25;5041790;28;20203;-54
2023/06/29 04:20:19;;;;;;;7.25;4.82;;;;;;;13.59;91.44;97235.63;5039150;28;20037;-54
2023/06/29 04:22:46;;;;;;;8.18;4.57;;;;;;;13.62;91.90;97243.25;5052075;28;20053;-56
2023/06/29 04:25:13;;;;;;;7.30;4.78;;;;;;;13.67;91.24;97236.97;5046824;28;20045;-54
2023/06/29 04:27:41;;;;;;;7.78;5.10;;;;;;;13.72;91.21;97239.69;5038325;28;20107;-53
2023/06/29 04:30:08;;;;;;;9.52;5.40;;;;;;;13.71;91.11;97246.19;5037227;28;20043;-51
2023/06/29 04:32:35;;;;;;;8.27;5.45;;;;;;;13.79;91.12;97247.56;5054489;28;20052;-52
2023/06/29 04:35:02;;;;;;;8.75;5.22;;;;;;;13.85;91.59;97234.72;5044135;28;20432;-55
2023/06/29 04:37:36;;;;;;;8.80;5.30;;;;;;;13.95;90.71;97236.63;5040350;28;20107;-55
2023/06/29 04:40:07;;;;;;;8.35;4.97;;;;;;;14.03;89.92;97234.16;5041271;28;20084;-51
2023/06/29 04:42:33;;;;;;;6.55;5.22;;;;;;;14.15;89.79;97227.56;5039688;28;20049;-56
2023/06/29 04:45:00;;;;;;;5.88;4.63;;;;;;;14.12;90.38;97226.19;5039395;28;20055;-53
2023/06/29 04:47:32;;;;;;;10.25;5.50;;;;;;;14.21;89.79;97229.16;5036498;28;20045;-49
2023/06/29 04:49:58;;;;;;;7.40;5.50;;;;;;;14.29;89.51;97227.75;5041303;28;20114;-49
2023/06/29 04:52:26;;;;;;;8.95;5.13;;;;;;;14.41;88.96;97222.81;5039767;28;20499;-52
2023/06/29 04:54:53;;;;;;;8.15;4.95;;;;;;;14.49;89.51;97224.13;5044335;28;20510;-50
2023/06/29 04:57:19;;;;;;;6.55;5.15;;;;;;;14.63;89.02;97227.03;5036811;28;20177;-53
2023/06/29 04:59:46;;;;;;;6.65;4.75;;;;;;;14.69;88.63;97230.53;5040662;28;20033;-55
2023/06/29 05:02:12;;;;;;;7.28;4.80;;;;;;;14.80;88.40;97225.88;5032626;28;20144;-54
2023/06/29 05:04:39;;;;;;;7.65;4.47;;;;;;;14.93;87.17;97227.16;5041967;28;20052;-55
2023/06/29 05:07:05;;;;;;;7.38;5.07;;;;;;;15.04;86.97;97230.63;5041386;28;20051;-52
2023/06/29 05:09:32;;;;;;;7.95;4.78;;;;;;;15.13;86.73;97226.19;5051784;28;20075;-55
2023/06/29 05:11:58;;;;;;;9.32;5.50;;;;;;;15.19;86.79;97229.69;5047535;28;20095;-55
2023/06/29 05:14:26;;;;;;;6.30;4.65;;;;;;;15.29;85.80;97223.31;5042904;28;20540;-55
2023/06/29 05:16:53;;;;;;;7.28;4.60;;;;;;;15.36;85.62;97228.44;5050135;28;20161;-54
2023/06/29 05:19:19;;;;;;;6.88;4.55;;;;;;;15.50;85.13;97226.66;5040117;28;20088;-53
2023/06/29 05:21:46;;;;;;;7.53;4.97;;;;;;;15.64;84.61;97229.53;5048686;28;20048;-57
2023/06/29 05:24:12;;;;;;;5.75;3.95;;;;;;;15.83;84.40;97236.97;5044723;28;20045;-56
2023/06/29 05:26:39;;;;;;;8.75;4.03;;;;;;;15.98;83.87;97231.38;5044667;28;20049;-53
2023/06/29 05:29:05;;;;;;;9.60;5.18;;;;;;;16.11;83.17;97235.31;5044827;28;20119;-54
2023/06/29 05:31:32;;;;;;;9.30;4.60;;;;;;;16.21;83.48;97234.38;5038856;28;20045;-55
2023/06/29 05:33:59;;;;;;;7.00;4.00;;;;;;;16.34;83.23;97224.66;5051199;28;20040;-56
2023/06/29 05:36:26;;;;;;;6.72;4.18;;;;;;;16.55;82.09;97223.56;5041416;28;20075;-51
2023/06/29 05:38:53;;;;;;;8.15;3.90;;;;;;;16.68;81.42;97222.00;5055003;28;20069;-54
2023/06/29 05:41:19;;;;;;;8.02;4.25;;;;;;;16.79;80.81;97226.22;5053486;28;20041;-51
2023/06/29 05:43:46;;;;;;;7.65;3.83;;;;;;;16.96;80.30;97227.63;5051123;28;20040;-61
2023/06/29 05:46:12;;;;;;;8.98;4.10;;;;;;;17.06;79.98;97227.47;5049732;28;20114;-60
2023/06/29 05:48:39;;;;;;;6.97;3.92;;;;;;;17.18;79.53;97227.03;5030452;28;20462;-60
2023/06/29 05:51:06;;;;;;;7.57;3.70;;;;;;;17.28;78.30;97231.50;5039775;28;20622;-60
2023/06/29 05:53:32;;;;;;;5.93;3.70;;;;;;;17.47;76.88;97225.97;5046025;28;20460;-60
2023/06/29 05:55:59;;;;;;;8.80;3.97;;;;;;;17.63;75.17;97225.69;5051878;28;20049;-59
2023/06/29 05:58:25;;;;;;;9.75;4.00;;;;;;;17.76;74.86;97216.69;5036912;28;20574;-59
2023/06/29 06:00:52;;;;;;;6.90;3.53;;;;;;;17.90;73.70;97218.63;5047627;28;20060;-59
2023/06/29 06:03:20;;;;;;;5.63;3.47;;;;;;;18.02;71.94;97215.41;5048685;28;20079;-59
2023/06/29 06:05:47;;;;;;;8.05;2.83;;;;;;;18.16;71.20;97221.69;5047301;28;20075;-57
2023/06/29 06:08:13;;;;;;;8.15;3.33;;;;;;;18.30;69.80;97210.72;5037617;28;20053;-59
2023/06/29 06:10:41;;;;;;;6.05;2.90;;;;;;;18.45;68.91;97206.84;5048134;28;20044;-59
2023/06/29 06:13:09;;;;;;;5.43;2.80;;;;;;;18.62;67.32;97212.78;5045318;28;20052;-59
2023/06/29 06:15:35;;;;;;;5.72;2.47;;;;;;;18.83;68.16;97200.22;5043919;28;20052;-59
2023/06/29 06:18:02;;;;;;;4.75;2.63;;;;;;;19.06;66.46;97208.47;5047169;28;20434;-59
2023/06/29 06:20:29;;;;;;;6.35;2.90;;;;;;;19.20;65.04;97205.69;5051252;28;20033;-59
2023/06/29 06:22:55;;;;;;;6.95;2.80;;;;;;;19.40;64.27;97213.72;5047295;28;20131;-59
2023/06/29 06:25:22;;;;;;;6.22;2.60;;;;;;;19.62;62.05;97215.63;5044609;28;20049;-58
2023/06/29 06:27:48;;;;;;;3.75;2.10;;;;;;;19.69;62.15;97215.16;5049985;28;20047;-58
2023/06/29 06:30:15;;;;;;;6.10;2.10;;;;;;;19.73;60.84;97216.16;5048611;28;20535;-59
2023/06/29 06:32:42;;;;;;;4.15;2.10;;;;;;;19.73;61.54;97213.41;5049532;28;20583;-58
2023/06/29 06:35:09;;;;;;;4.47;2.55;;;;;;;19.86;60.21;97209.72;5047655;28;20060;-60
2023/06/29 06:37:36;;;;;;;4.60;2.28;;;;;;;19.95;60.09;97204.28;5046458;28;20060;-59
2023/06/29 06:40:07;;;;;;;5.78;2.22;;;;;;;20.01;59.19;97213.19;5049823;28;20045;-59
2023/06/29 06:42:43;;;;;;;5.93;2.17;;;;;;;19.98;58.71;97209.16;5048778;28;20069;-58
2023/06/29 06:45:10;;;;;;;4.78;2.40;;;;;;;19.97;58.51;97204.75;5046829;28;20106;-59
2023/06/29 06:47:37;;;;;;;4.75;2.25;;;;;;;20.00;58.41;97200.59;5044382;28;20522;-58
2023/06/29 06:50:04;;;;;;;4.68;2.15;;;;;;;20.15;57.96;97202.09;5039505;28;20055;-59
2023/06/29 06:52:31;;;;;;;4.35;2.10;;;;;;;20.23;56.35;97197.75;5046281;28;20504;-59
2023/06/29 06:54:58;;;;;;;6.43;2.40;;;;;;;20.40;56.00;97203.28;5047031;28;20052;-59
2023/06/29 06:57:25;;;;;;;8.00;2.50;;;;;;;20.58;54.90;97199.75;5043216;28;20654;-59
2023/06/29 06:59:51;;;;;;;4.53;2.10;;;;;;;20.79;54.59;97195.22;5044658;28;20045;-59
2023/06/29 07:02:18;;;;;;;4.65;1.88;;;;;;;20.97;53.53;97197.19;5051471;28;20136;-59
2023/06/29 07:04:44;;;;;;;4.68;1.90;;;;;;;21.10;53.12;97198.13;5046886;28;20126;-59
2023/06/29 07:07:11;;;;;;;3.75;1.80;;;;;;;21.17;51.21;97193.78;5042100;28;20113;-59
2023/06/29 07:09:38;;;;;;;5.68;1.80;;;;;;;21.27;50.15;97192.59;5045001;28;20056;-59
2023/06/29 07:12:06;;;;;;;5.63;2.13;;;;;;;21.40;50.69;97189.97;5037369;28;20053;-58
2023/06/29 07:14:32;;;;;;;3.63;1.67;;;;;;;21.47;49.80;97195.00;5041643;28;20041;-57
2023/06/29 07:16:59;;;;;;;4.65;1.85;;;;;;;21.77;49.71;97190.38;5046713;28;20400;-57
2023/06/29 07:19:26;;;;;;;6.85;1.90;;;;;;;22.06;49.31;97191.56;5048202;28;20052;-59
2023/06/29 07:21:56;;;;;;;3.97;1.92;;;;;;;22.33;47.76;97191.38;5053375;28;20457;-59
2023/06/29 07:24:25;;;;;;;6.20;1.80;;;;;;;22.35;48.10;97189.94;5046425;28;20717;-59
2023/06/29 07:26:52;;;;;;;5.25;1.83;;;;;;;22.46;47.37;97186.75;5044638;28;20043;-59
2023/06/29 07:29:18;;;;;;;3.70;1.58;;;;;;;22.44;46.19;97184.34;5053143;28;20537;-58
2023/06/29 07:31:46;;;;;;;4.88;2.10;;;;;;;22.41;45.98;97186.97;5042034;28;20060;-59
2023/06/29 07:34:12;;;;;;;3.88;1.80;;;;;;;22.41;46.76;97186.97;5042089;28;20128;-59
2023/06/29 07:36:39;;;;;;;8.27;2.30;;;;;;;22.20;47.41;97190.50;5042682;28;20045;-59
2023/06/29 07:39:05;;;;;;;5.55;2.03;;;;;;;22.19;46.94;97192.44;5041942;28;20048;-57
2023/06/29 07:41:32;;;;;;;4.30;1.63;;;;;;;22.37;47.31;97186.03;5040750;28;20073;-59
2023/06/29 07:43:59;;;;;;;5.07;2.22;;;;;;;22.51;47.07;97181.03;5046686;28;20102;-59
2023/06/29 07:46:26;;;;;;;5.95;1.88;;;;;;;22.47;47.18;97177.34;5044086;28;20450;-59
2023/06/29 07:48:54;;;;;;;5.88;1.73;;;;;;;22.47;46.92;97175.41;5047846;28;20045;-57
2023/06/29 07:51:21;;;;;;;7.20;2.60;;;;;;;22.67;47.33;97166.69;5036438;28;20064;-59
2023/06/29 07:53:48;;;;;;;5.00;2.03;;;;;;;22.73;46.38;97166.13;5046378;28;20044;-59
2023/06/29 07:56:14;;;;;;;4.05;1.70;;;;;;;22.74;45.83;97172.47;5047719;28;20052;-59
2023/06/29 07:58:41;;;;;;;5.95;1.80;;;;;;;22.88;45.47;97172.19;5038650;28;20154;-59
2023/06/29 08:01:08;;;;;;;4.28;1.80;;;;;;;22.99;45.57;97169.81;5049664;28;20079;-59
2023/06/29 08:03:34;;;;;;;3.30;1.75;;;;;;;23.03;44.60;97175.47;5047548;28;20040;-59
2023/06/29 08:06:21;;;;;;;4.97;1.70;;;;;;;23.16;44.69;97168.84;5045189;28;20689;-59
2023/06/29 08:08:51;;;;;;;4.60;1.73;;;;;;;23.08;43.37;97164.22;5046051;28;20044;-59
2023/06/29 08:11:18;;;;;;;3.65;1.50;;;;;;;23.12;42.49;97167.91;5042102;28;20049;-59
2023/06/29 08:13:44;;;;;;;5.80;1.42;;;;;;;23.09;43.73;97172.16;5046004;28;20499;-59
2023/06/29 08:16:11;;;;;;;4.00;1.40;;;;;;;22.97;42.89;97164.63;5038818;28;20099;-59
2023/06/29 08:18:37;;;;;;;7.18;1.60;;;;;;;23.10;43.66;97159.13;5050249;28;20041;-59
2023/06/29 08:21:04;;;;;;;3.92;1.63;;;;;;;23.08;43.72;97156.75;5048171;28;20049;-59
2023/06/29 08:23:34;;;;;;;9.45;2.28;;;;;;;23.31;42.83;97163.81;5041000;28;20795;-58
2023/06/29 08:26:00;;;;;;;3.58;1.80;;;;;;;23.54;42.46;97157.91;5041200;28;20047;-60
2023/06/29 08:28:27;;;;;;;7.53;1.58;;;;;;;23.80;42.23;97159.56;5044305;28;20040;-59
2023/06/29 08:30:53;;;;;;;6.20;1.80;;;;;;;23.94;40.96;97157.22;5050428;28;20045;-59
2023/06/29 08:33:23;;;;;;;5.75;1.77;;;;;;;24.17;41.12;97154.00;5045528;28;20055;-59
2023/06/29 08:35:51;;;;;;;4.50;1.80;;;;;;;24.27;40.57;97150.78;5042992;28;20549;-59
2023/06/29 08:38:18;;;;;;;4.22;1.63;;;;;;;24.56;40.31;97150.84;5039381;28;20044;-59
2023/06/29 08:40:47;;;;;;;4.78;1.70;;;;;;;24.65;39.65;97157.03;5052435;28;20040;-59
2023/06/29 08:43:18;;;;;;;5.05;1.65;;;;;;;24.99;41.23;97147.72;5035949;28;20456;-60
2023/06/29 08:45:45;;;;;;;6.70;1.60;;;;;;;25.04;39.09;97152.97;5037264;28;21422;-59
2023/06/29 08:48:13;;;;;;;4.93;1.58;;;;;;;24.94;39.73;97146.81;5042777;28;20086;-58
2023/06/29 08:50:45;;;;;;;4.53;1.58;;;;;;;24.98;38.57;97146.91;5047049;28;20049;-58
2023/06/29 08:53:13;;;;;;;4.72;1.85;;;;;;;24.93;38.29;97150.75;5042532;28;20540;-60
2023/06/29 08:55:41;;;;;;;7.45;2.22;;;;;;;24.70;39.50;97146.88;5035259;28;20037;-60
2023/06/29 08:58:08;;;;;;;6.38;1.83;;;;;;;24.89;38.54;97135.16;5042567;28;20040;-59
2023/06/29 09:00:35;;;;;;;5.07;2.15;;;;;;;24.71;39.87;97138.22;5049404;28;20037;-60
2023/06/29 09:03:03;;;;;;;5.30;1.80;;;;;;;24.75;39.87;97141.06;5047551;28;20036;-60
2023/06/29 09:05:30;;;;;;;2.53;1.48;;;;;;;24.77;39.04;97136.78;5039795;28;20060;-60
2023/06/29 09:07:57;;;;;;;6.57;1.85;;;;;;;24.62;40.55;97141.13;5049026;28;20462;-60
2023/06/29 09:10:23;;;;;;;5.53;1.55;;;;;;;24.56;40.06;97137.00;5038273;28;20051;-60
2023/06/29 09:12:52;;;;;;;7.35;1.85;;;;;;;24.71;39.95;97137.41;5050433;28;20598;-60
2023/06/29 09:15:20;;;;;;;7.20;2.58;;;;;;;24.75;41.08;97136.34;5040703;28;20053;-60
2023/06/29 09:17:54;;;;;;;5.85;2.50;;;;;;;24.65;40.79;97139.59;5054690;28;20040;-58
2023/06/29 09:20:41;;;;;;;3.67;1.80;;;;;;;24.75;41.56;97139.13;5042872;28;20051;-58
2023/06/29 09:23:12;;;;;;;5.32;1.98;;;;;;;24.95;39.84;97139.31;5040061;28;20051;-60
2023/06/29 09:25:39;;;;;;;4.53;1.70;;;;;;;25.16;39.62;97136.31;5038493;28;20042;-58
2023/06/29 09:28:07;;;;;;;6.72;1.80;;;;;;;25.25;39.77;97135.34;5038893;28;20098;-60
2023/06/29 09:30:37;;;;;;;6.10;1.60;;;;;;;25.43;38.66;97131.06;5044566;28;20110;-60
2023/06/29 09:33:09;;;;;;;4.40;1.70;;;;;;;25.48;39.65;97132.78;5049603;28;20054;-59
2023/06/29 09:35:39;;;;;;;5.47;2.03;;;;;;;25.73;38.25;97131.81;5044203;28;20042;-59
2023/06/29 09:38:06;;;;;;;6.22;1.60;;;;;;;25.80;38.37;97134.75;5033740;28;20056;-60
2023/06/29 09:40:52;;;;;;;5.60;2.08;;;;;;;25.74;38.83;97130.63;5042051;28;20124;-60
2023/06/29 09:43:20;;;;;;;8.27;2.13;;;;;;;25.57;40.04;97132.59;5038228;28;20149;-59
2023/06/29 09:45:47;;;;;;;5.18;1.63;;;;;;;25.46;39.74;97135.88;5042239;28;20047;-60
2023/06/29 09:48:14;;;;;;;5.25;1.75;;;;;;;25.41;39.14;97132.56;5050645;28;20045;-59
2023/06/29 09:50:53;;;;;;;5.70;2.33;;;;;;;25.50;39.12;97133.19;5041272;28;20045;-60
2023/06/29 09:53:31;;;;;;;4.88;1.98;;;;;;;25.75;38.79;97121.97;5044462;28;20128;-60
2023/06/29 09:55:59;;;;;;;5.00;1.90;;;;;;;25.82;38.63;97127.69;5043776;28;20669;-60
2023/06/29 09:58:28;;;;;;;6.65;2.35;;;;;;;25.96;39.99;97120.88;5041968;28;20036;-60
2023/06/29 10:00:58;;;;;;;4.38;1.70;;;;;;;26.22;39.14;97116.69;5046961;28;20033;-60
2023/06/29 10:03:31;;;;;;;5.38;1.83;;;;;;;26.19;38.54;97118.22;5036061;28;20667;-60
2023/06/29 10:06:03;;;;;;;3.35;1.90;;;;;;;26.27;38.30;97119.19;5040418;28;20092;-59
2023/06/29 10:08:32;;;;;;;4.90;1.85;;;;;;;25.98;37.85;97118.53;5038136;28;20037;-60
2023/06/29 10:11:02;;;;;;;6.43;2.47;;;;;;;25.86;37.74;97121.44;5050601;28;20115;-60
2023/06/29 10:13:36;;;;;;;4.73;2.03;;;;;;;26.03;37.49;97114.69;5046350;28;20127;-60
2023/06/29 10:16:08;;;;;;;4.45;2.35;;;;;;;26.07;37.83;97113.59;5050884;28;20047;-61
2023/06/29 10:18:41;;;;;;;4.20;1.88;;;;;;;25.90;38.06;97105.69;5040566;28;20043;-60
2023/06/29 10:21:07;;;;;;;5.20;1.90;;;;;;;25.92;38.35;97106.13;5048575;28;21335;-60
2023/06/29 10:23:35;;;;;;;4.70;1.85;;;;;;;25.83;38.03;97107.09;5049945;28;20045;-60
2023/06/29 10:26:03;;;;;;;5.70;2.13;;;;;;;25.78;38.53;97107.38;5046132;28;20675;-60
2023/06/29 10:28:30;;;;;;;4.43;2.00;;;;;;;26.01;38.37;97103.16;5040601;28;20044;-61
2023/06/29 10:30:59;;;;;;;7.30;2.13;;;;;;;25.92;38.72;97104.16;5047024;28;20044;-60
2023/06/29 10:33:26;;;;;;;3.92;1.90;;;;;;;25.81;38.69;97103.09;5042296;28;20044;-60
2023/06/29 10:35:57;;;;;;;3.97;2.00;;;;;;;26.21;37.59;97095.66;5044652;28;20056;-60
2023/06/29 10:38:32;;;;;;;4.10;1.90;;;;;;;26.48;37.11;97093.09;5051217;28;20065;-58
2023/06/29 10:40:59;;;;;;;4.38;1.90;;;;;;;26.55;36.77;97090.47;5046471;28;20068;-60
2023/06/29 10:43:27;;;;;;;6.55;1.80;;;;;;;26.71;37.59;97092.34;5050935;28;20049;-61
2023/06/29 10:45:54;;;;;;;6.32;2.13;;;;;;;26.88;37.81;97091.91;5054590;28;20064;-60
2023/06/29 10:48:20;;;;;;;5.18;2.05;;;;;;;26.61;36.94;97089.00;5057375;28;20115;-60
2023/06/29 10:51:08;;;;;;;4.78;2.28;;;;;;;26.70;36.31;97087.97;5043105;28;20049;-61
2023/06/29 10:53:35;;;;;;;5.82;2.20;;;;;;;26.69;36.55;97083.59;5041430;28;20077;-60
2023/06/29 10:56:01;;;;;;;4.10;1.88;;;;;;;26.80;36.45;97081.00;5051816;28;20061;-60
2023/06/29 10:58:37;;;;;;;5.18;2.47;;;;;;;27.22;36.69;97082.19;5042160;28;20045;-60
2023/06/29 11:01:04;;;;;;;4.43;2.08;;;;;;;27.43;35.79;97079.00;5045818;28;20040;-60
2023/06/29 11:03:31;;;;;;;5.53;2.30;;;;;;;27.14;36.17;97070.97;5045453;28;20041;-60
2023/06/29 11:06:01;;;;;;;4.60;2.42;;;;;;;27.35;35.83;97069.72;5043985;28;20037;-60
2023/06/29 11:08:30;;;;;;;5.57;2.45;;;;;;;27.67;35.31;97070.66;5038417;28;20042;-61
2023/06/29 11:11:13;;;;;;;4.97;2.33;;;;;;;27.51;35.50;97066.00;5050651;28;20045;-60
2023/06/29 11:13:39;;;;;;;4.63;2.70;;;;;;;27.90;35.89;97062.25;5038131;28;20111;-60
2023/06/29 11:16:06;;;;;;;4.13;2.20;;;;;;;28.41;35.22;97065.75;5051188;28;20694;-59
2023/06/29 11:18:32;;;;;;;5.30;2.95;;;;;;;28.45;34.42;97071.34;5048589;28;20427;-61
2023/06/29 11:21:00;;;;;;;7.07;3.13;;;;;;;28.25;33.87;97061.16;5034627;28;20051;-60
2023/06/29 11:23:26;;;;;;;4.30;2.63;;;;;;;28.19;34.70;97062.63;5052380;28;20135;-59
2023/06/29 11:25:53;;;;;;;6.60;2.78;;;;;;;27.94;35.50;97051.19;5048108;28;20074;-58
2023/06/29 11:28:20;;;;;;;5.55;2.75;;;;;;;27.82;36.09;97064.13;5051251;28;20036;-60
2023/06/29 11:30:46;;;;;;;5.05;2.40;;;;;;;27.34;36.63;97053.44;5048528;28;20072;-59
2023/06/29 11:33:33;;;;;;;6.15;2.42;;;;;;;27.16;37.36;97056.69;5043814;28;20041;-60
2023/06/29 11:36:00;;;;;;;11.95;2.35;;;;;;;26.83;37.70;97058.84;5042274;28;20160;-60
2023/06/29 11:38:27;;;;;;;7.03;2.22;;;;;;;26.72;38.22;97061.44;5050512;28;20115;-61